Time;durP1;ratioP1;P1;durP2;ratioP2;P2;SDS_P1;SDS_P2;PMS_P1;PMS_P2;Temp;Humidity;BMP_temperature;BMP_pressure;BME280_temperature;BME280_humidity;BME280_pressure;Samples;Min_cycle;Max_cycle;Signal;HPM_P1;HPM_P2
2021/01/04 00:00:06;;;;;;;9.00;6.90;;;3.50;99.90;;;;;;5069018;28;20060;-65
2021/01/04 00:03:20;;;;;;;8.18;6.38;;;3.50;99.90;;;;;;5076856;28;20020;-60
2021/01/04 00:06:17;;;;;;;7.75;6.05;;;3.50;99.90;;;;;;5060860;28;20131;-60
2021/01/04 00:09:19;;;;;;;9.98;6.43;;;3.50;99.90;;;;;;5076407;28;20052;-60
2021/01/04 00:11:55;;;;;;;;;;;3.60;99.90;;;;;;5075048;28;20059;-60
2021/01/04 00:14:33;;;;;;;9.35;6.97;;;3.50;99.90;;;;;;5076308;28;19908;-58
2021/01/04 00:17:36;;;;;;;7.95;5.93;;;3.50;99.90;;;;;;5073839;28;20033;-60
2021/01/04 00:20:12;;;;;;;13.18;9.18;;;3.60;99.90;;;;;;5075626;28;20109;-64
2021/01/04 00:22:52;;;;;;;11.45;8.40;;;3.70;99.90;;;;;;5075132;28;20111;-59
2021/01/04 00:25:23;;;;;;;11.07;7.57;;;3.60;99.90;;;;;;5074894;28;20025;-60
2021/01/04 00:27:59;;;;;;;11.55;7.47;;;3.50;99.90;;;;;;5074153;28;20478;-59
2021/01/04 00:30:30;;;;;;;8.88;6.82;;;3.60;99.90;;;;;;5074850;28;20150;-59
2021/01/04 00:33:01;;;;;;;7.70;6.55;;;3.60;99.90;;;;;;5075702;28;20056;-58
2021/01/04 00:35:27;;;;;;;9.00;6.47;;;3.60;99.90;;;;;;5075749;28;20035;-61
2021/01/04 00:38:11;;;;;;;9.00;7.53;;;3.60;99.90;;;;;;5073920;28;20033;-60
2021/01/04 00:41:00;;;;;;;10.90;6.97;;;3.60;99.90;;;;;;5075885;28;20060;-60
2021/01/04 00:43:42;;;;;;;9.82;6.95;;;3.50;99.90;;;;;;5074398;28;20056;-58
2021/01/04 00:46:08;;;;;;;8.63;6.60;;;3.50;99.90;;;;;;5073744;28;20461;-59
2021/01/04 00:48:37;;;;;;;8.93;6.38;;;3.50;99.90;;;;;;5075469;28;20054;-59
2021/01/04 00:51:14;;;;;;;8.48;7.10;;;3.60;99.90;;;;;;5074681;28;20470;-61
2021/01/04 00:53:48;;;;;;;7.55;6.35;;;3.50;99.90;;;;;;5075340;28;20048;-58
2021/01/04 00:56:20;;;;;;;8.55;6.57;;;3.60;99.90;;;;;;5075414;28;20129;-58
2021/01/04 00:58:51;;;;;;;8.38;6.90;;;3.50;99.90;;;;;;5075695;28;20032;-59
2021/01/04 01:01:49;;;;;;;9.60;7.28;;;3.60;99.90;;;;;;5075477;28;20032;-59
2021/01/04 01:04:38;;;;;;;9.63;6.95;;;3.50;99.90;;;;;;5074059;28;20427;-58
2021/01/04 01:07:12;;;;;;;8.75;6.72;;;3.50;99.90;;;;;;5064789;28;20545;-58
2021/01/04 01:09:45;;;;;;;8.00;6.60;;;3.60;99.90;;;;;;5074941;28;20025;-59
2021/01/04 01:12:23;;;;;;;9.27;6.97;;;3.60;99.90;;;;;;5074941;28;20024;-59
2021/01/04 01:14:57;;;;;;;8.90;6.60;;;3.50;99.90;;;;;;5073141;28;20028;-60
2021/01/04 01:17:41;;;;;;;9.80;7.50;;;3.50;99.90;;;;;;5075032;28;20032;-59
2021/01/04 01:20:11;;;;;;;9.90;7.20;;;3.40;99.90;;;;;;5073360;28;20094;-65
2021/01/04 01:22:40;;;;;;;11.13;6.47;;;3.40;99.90;;;;;;5075168;28;20134;-59
2021/01/04 01:25:18;;;;;;;8.85;7.35;;;3.50;99.90;;;;;;5073095;28;20424;-62
2021/01/04 01:28:02;;;;;;;9.73;7.15;;;3.60;99.90;;;;;;5074930;28;20029;-59
2021/01/04 01:30:49;;;;;;;9.25;7.15;;;3.60;99.90;;;;;;5074929;28;20032;-67
2021/01/04 01:33:30;;;;;;;8.95;6.65;;;3.50;99.90;;;;;;5074508;28;20382;-71
2021/01/04 01:36:07;;;;;;;7.72;6.50;;;3.50;99.90;;;;;;5073883;28;20116;-62
2021/01/04 01:38:58;;;;;;;9.75;7.55;;;3.50;99.90;;;;;;5075141;28;20024;-60
2021/01/04 01:42:14;;;;;;;9.85;7.28;;;3.50;99.90;;;;;;5073688;28;20083;-59
2021/01/04 01:45:08;;;;;;;8.77;6.85;;;3.50;99.90;;;;;;5074523;28;20021;-60
2021/01/04 01:48:01;;;;;;;9.65;6.95;;;3.50;99.90;;;;;;5074175;28;20033;-59
2021/01/04 01:50:47;;;;;;;10.15;7.32;;;3.50;99.90;;;;;;5074969;28;20028;-59
2021/01/04 01:53:18;;;;;;;8.75;6.70;;;3.40;99.90;;;;;;5073755;28;20043;-60
2021/01/04 01:55:50;;;;;;;10.32;7.05;;;3.40;99.90;;;;;;5072879;28;20462;-58
2021/01/04 01:58:16;;;;;;;9.75;7.60;;;3.50;99.90;;;;;;5072971;28;20123;-59
2021/01/04 02:00:49;;;;;;;9.40;6.75;;;3.50;99.90;;;;;;5072779;28;20120;-58
2021/01/04 02:03:35;;;;;;;9.48;6.85;;;3.50;99.90;;;;;;5072336;28;20127;-59
2021/01/04 02:06:31;;;;;;;7.70;6.43;;;3.50;99.90;;;;;;5073503;28;20032;-60
2021/01/04 02:09:09;;;;;;;7.55;6.22;;;3.40;99.90;;;;;;5073344;28;20111;-58
2021/01/04 02:11:42;;;;;;;9.73;7.10;;;3.40;99.90;;;;;;5073823;28;20036;-58
2021/01/04 02:14:14;;;;;;;9.43;7.13;;;3.40;99.90;;;;;;5073192;28;20021;-61
2021/01/04 02:17:15;;;;;;;8.50;6.75;;;3.30;99.90;;;;;;5074061;28;20033;-58
2021/01/04 02:19:48;;;;;;;8.15;7.18;;;3.20;99.90;;;;;;5073440;28;20051;-60
2021/01/04 02:22:40;;;;;;;10.13;7.25;;;3.30;99.90;;;;;;5072544;28;20035;-60
2021/01/04 02:25:06;;;;;;;11.68;7.97;;;3.30;99.90;;;;;;5072209;28;20497;-60
2021/01/04 02:27:48;;;;;;;11.20;8.43;;;3.30;99.90;;;;;;5074065;28;20134;-59
2021/01/04 02:30:14;;;;;;;9.98;7.50;;;3.30;99.90;;;;;;5072837;28;20389;-59
2021/01/04 02:32:40;;;;;;;11.23;8.07;;;3.40;99.90;;;;;;5073855;28;20127;-59
2021/01/04 02:35:07;;;;;;;9.30;7.00;;;3.30;99.90;;;;;;5072579;28;20025;-62
2021/01/04 02:37:33;;;;;;;10.27;6.85;;;3.30;99.90;;;;;;5074616;28;20035;-65
2021/01/04 02:40:04;;;;;;;10.02;7.20;;;3.20;99.90;;;;;;5073811;28;20389;-64
2021/01/04 02:42:39;;;;;;;11.68;7.57;;;3.40;99.90;;;;;;5073330;28;20025;-60
2021/01/04 02:45:15;;;;;;;10.23;7.32;;;3.40;99.90;;;;;;5073713;28;20037;-59
2021/01/04 02:48:04;;;;;;;10.57;7.00;;;3.40;99.90;;;;;;5072873;28;20460;-59
2021/01/04 02:50:53;;;;;;;9.98;7.40;;;3.40;99.90;;;;;;5073265;28;20157;-61
2021/01/04 02:54:11;;;;;;;11.52;7.28;;;3.40;99.90;;;;;;5072077;28;20106;-59
2021/01/04 02:56:44;;;;;;;14.80;8.27;;;3.50;99.90;;;;;;5050020;28;20435;-59
2021/01/04 02:59:35;;;;;;;10.52;8.00;;;3.40;99.90;;;;;;5072672;28;20103;-66
2021/01/04 03:02:10;;;;;;;11.80;7.33;;;3.40;99.90;;;;;;5073138;28;20532;-61
2021/01/04 03:04:36;;;;;;;8.55;6.85;;;3.40;99.90;;;;;;5072390;28;20025;-62
2021/01/04 03:07:11;;;;;;;10.95;7.88;;;3.40;99.90;;;;;;5071712;28;20504;-59
2021/01/04 03:09:46;;;;;;;10.65;7.78;;;3.40;99.90;;;;;;5072029;28;20107;-59
2021/01/04 03:12:16;;;;;;;12.32;7.82;;;3.40;99.90;;;;;;5072248;28;20462;-63
2021/01/04 03:15:06;;;;;;;10.68;8.07;;;3.30;99.90;;;;;;5074065;28;20576;-60
2021/01/04 03:17:54;;;;;;;10.93;8.38;;;3.50;99.90;;;;;;5074055;28;20054;-62
2021/01/04 03:20:23;;;;;;;10.45;8.13;;;3.40;99.90;;;;;;5072761;28;20033;-62
2021/01/04 03:22:50;;;;;;;11.25;7.70;;;3.30;99.90;;;;;;5073483;28;20556;-63
2021/01/04 03:25:32;;;;;;;11.57;7.95;;;3.40;99.90;;;;;;5072182;28;20048;-59
2021/01/04 03:27:59;;;;;;;13.32;7.88;;;3.40;99.90;;;;;;5072347;28;20055;-62
2021/01/04 03:30:25;;;;;;;10.13;7.80;;;3.20;99.90;;;;;;5071344;28;20029;-58
2021/01/04 03:32:51;;;;;;;9.95;7.50;;;3.20;99.90;;;;;;5072413;28;20029;-65
2021/01/04 03:35:17;;;;;;;11.82;7.90;;;3.20;99.90;;;;;;5071107;28;20515;-58
2021/01/04 03:37:43;;;;;;;12.07;8.85;;;3.20;99.90;;;;;;5071836;28;20081;-58
2021/01/04 03:40:09;;;;;;;12.32;8.95;;;3.20;99.90;;;;;;5070814;28;20029;-58
2021/01/04 03:42:35;;;;;;;12.18;8.80;;;3.30;99.90;;;;;;5072592;28;20016;-59
2021/01/04 03:45:01;;;;;;;11.30;8.20;;;3.20;99.90;;;;;;5072019;28;20493;-58
2021/01/04 03:47:26;;;;;;;11.82;8.50;;;3.20;99.90;;;;;;5072403;28;20039;-58
2021/01/04 03:49:53;;;;;;;13.40;8.38;;;3.20;99.90;;;;;;5072610;28;20474;-59
2021/01/04 03:52:19;;;;;;;11.98;8.95;;;3.20;99.90;;;;;;5069991;28;20130;-58
2021/01/04 03:54:45;;;;;;;11.95;8.10;;;3.20;99.90;;;;;;5072306;28;20473;-60
2021/01/04 03:57:11;;;;;;;12.68;8.70;;;3.10;99.90;;;;;;5070593;28;20032;-59
2021/01/04 03:59:37;;;;;;;12.25;8.85;;;3.30;99.90;;;;;;5071258;28;20025;-63
2021/01/04 04:02:03;;;;;;;10.55;7.80;;;3.10;99.90;;;;;;5072006;28;20033;-60
2021/01/04 04:04:29;;;;;;;10.82;8.38;;;3.10;99.90;;;;;;5071223;28;20074;-59
2021/01/04 04:06:54;;;;;;;10.20;7.40;;;3.10;99.90;;;;;;5071320;28;20028;-59
2021/01/04 04:09:23;;;;;;;13.50;9.52;;;3.10;99.90;;;;;;5071905;28;20025;-59
2021/01/04 04:11:50;;;;;;;11.65;8.80;;;3.10;99.90;;;;;;5070961;28;20032;-60
2021/01/04 04:14:16;;;;;;;13.63;9.70;;;3.10;99.90;;;;;;5070373;28;20040;-61
2021/01/04 04:16:42;;;;;;;12.32;8.90;;;3.20;99.90;;;;;;5072266;28;20036;-57
2021/01/04 04:19:08;;;;;;;12.63;8.48;;;3.20;99.90;;;;;;5070477;28;20078;-60
2021/01/04 04:21:34;;;;;;;14.05;9.80;;;3.10;99.90;;;;;;5070682;28;20029;-58
2021/01/04 04:24:00;;;;;;;15.55;9.50;;;3.10;99.90;;;;;;5071811;28;20546;-60
2021/01/04 04:26:28;;;;;;;14.50;9.65;;;3.10;99.90;;;;;;5072453;28;20025;-58
2021/01/04 04:28:54;;;;;;;14.07;9.25;;;3.20;99.90;;;;;;5075308;28;20025;-59
2021/01/04 04:31:21;;;;;;;13.57;9.18;;;3.20;99.90;;;;;;5076441;28;20424;-60
2021/01/04 04:33:47;;;;;;;14.38;9.77;;;3.20;99.90;;;;;;5076428;28;20028;-58
2021/01/04 04:36:22;;;;;;;13.07;9.38;;;3.20;99.90;;;;;;5076736;28;20032;-61
2021/01/04 04:38:49;;;;;;;12.73;9.02;;;3.20;99.90;;;;;;5077511;28;20382;-59
2021/01/04 04:41:27;;;;;;;14.20;8.88;;;3.30;99.90;;;;;;5077316;28;20034;-62
2021/01/04 04:44:00;;;;;;;13.48;9.38;;;3.30;99.90;;;;;;5076556;28;20021;-58
2021/01/04 04:46:46;;;;;;;15.07;9.30;;;3.30;99.90;;;;;;5075807;28;20028;-63
2021/01/04 04:49:56;;;;;;;13.18;8.88;;;3.50;99.90;;;;;;5076067;28;20448;-59
2021/01/04 04:52:33;;;;;;;16.58;8.48;;;3.40;99.90;;;;;;5076163;28;20055;-60
2021/01/04 04:55:37;;;;;;;14.05;9.02;;;3.30;99.90;;;;;;5076295;28;20031;-58
2021/01/04 04:58:35;;;;;;;13.15;8.50;;;3.30;99.90;;;;;;5074689;28;20043;-60
2021/01/04 05:01:19;;;;;;;13.88;9.30;;;3.30;99.90;;;;;;5075566;28;20031;-59
2021/01/04 05:04:23;;;;;;;13.60;9.85;;;3.20;99.90;;;;;;5075222;28;20400;-59
2021/01/04 05:06:59;;;;;;;15.43;9.00;;;3.20;99.90;;;;;;5074184;28;20020;-58
2021/01/04 05:09:30;;;;;;;14.82;9.63;;;3.30;99.90;;;;;;5073357;28;20355;-58
2021/01/04 05:12:17;;;;;;;15.40;9.95;;;3.30;99.90;;;;;;5073570;28;20478;-59
2021/01/04 05:14:57;;;;;;;14.93;9.23;;;3.30;99.90;;;;;;5075517;28;20024;-59
2021/01/04 05:17:47;;;;;;;16.23;9.65;;;3.30;99.90;;;;;;5074631;28;20043;-58
2021/01/04 05:20:41;;;;;;;14.68;9.98;;;3.40;99.90;;;;;;5073149;28;20098;-58
2021/01/04 05:23:27;;;;;;;14.77;8.95;;;3.40;99.90;;;;;;5074388;28;20104;-59
2021/01/04 05:26:23;;;;;;;15.30;9.57;;;3.40;99.90;;;;;;5073970;28;20102;-58
2021/01/04 05:29:07;;;;;;;16.65;9.25;;;3.30;99.90;;;;;;5073479;28;20031;-58
2021/01/04 05:32:23;;;;;;;16.13;10.63;;;3.30;99.90;;;;;;5074620;28;20130;-59
2021/01/04 05:35:01;;;;;;;14.90;10.93;;;3.30;99.90;;;;;;5032390;28;20037;-59
2021/01/04 05:37:50;;;;;;;15.35;9.52;;;3.30;99.90;;;;;;5031832;28;20084;-58
2021/01/04 05:40:34;;;;;;;16.40;9.75;;;3.30;99.90;;;;;;5063739;28;20040;-58
2021/01/04 05:43:04;;;;;;;15.57;9.50;;;3.20;99.90;;;;;;5074311;28;20420;-59
2021/01/04 05:45:51;;;;;;;16.73;10.40;;;3.20;99.90;;;;;;5073169;28;20028;-59
2021/01/04 05:48:44;;;;;;;14.13;10.02;;;3.30;99.90;;;;;;5073623;28;20485;-65
2021/01/04 05:51:20;;;;;;;15.38;10.02;;;3.30;99.90;;;;;;5072987;28;20429;-60
2021/01/04 05:53:47;;;;;;;15.63;9.30;;;3.30;99.90;;;;;;5074569;28;20041;-59
2021/01/04 05:56:21;;;;;;;14.77;9.65;;;3.40;99.90;;;;;;5072564;28;20029;-59
2021/01/04 05:58:47;;;;;;;19.33;10.50;;;3.30;99.90;;;;;;5073094;28;20035;-59
2021/01/04 06:01:25;;;;;;;14.98;9.95;;;3.30;99.90;;;;;;5072316;28;20393;-58
2021/01/04 06:04:01;;;;;;;14.40;9.65;;;3.30;99.90;;;;;;5074238;28;20442;-59
2021/01/04 06:06:44;;;;;;;13.95;9.20;;;3.20;99.90;;;;;;5071961;28;20082;-59
2021/01/04 06:09:16;;;;;;;14.32;9.25;;;3.30;99.90;;;;;;5072304;28;20031;-64
2021/01/04 06:12:12;;;;;;;16.42;9.90;;;3.40;99.90;;;;;;5073649;28;20424;-60
2021/01/04 06:14:38;;;;;;;14.60;8.90;;;3.30;99.90;;;;;;5072578;28;20021;-59
2021/01/04 06:17:31;;;;;;;15.10;9.90;;;3.30;99.90;;;;;;5072225;28;20079;-59
2021/01/04 06:20:12;;;;;;;13.90;9.18;;;3.40;99.90;;;;;;5073929;28;20036;-61
2021/01/04 06:22:37;;;;;;;17.50;10.23;;;3.40;99.90;;;;;;5072705;28;20052;-59
2021/01/04 06:25:06;;;;;;;14.48;9.52;;;3.40;99.90;;;;;;5073699;28;20418;-60
2021/01/04 06:27:35;;;;;;;16.90;10.10;;;3.40;99.90;;;;;;5072379;28;20032;-60
2021/01/04 06:30:30;;;;;;;17.73;8.93;;;3.30;99.90;;;;;;5073485;28;20031;-59
2021/01/04 06:33:06;;;;;;;21.27;11.88;;;3.30;99.90;;;;;;5073233;28;20470;-59
2021/01/04 06:35:34;;;;;;;18.42;10.07;;;3.40;99.90;;;;;;5072439;28;20044;-59
2021/01/04 06:38:14;;;;;;;16.13;9.35;;;3.40;99.90;;;;;;5072289;28;20025;-60
2021/01/04 06:40:44;;;;;;;14.70;9.32;;;3.40;99.90;;;;;;5071688;28;20025;-58
2021/01/04 06:43:12;;;;;;;17.33;10.05;;;3.40;99.90;;;;;;5071777;28;20063;-59
2021/01/04 06:46:14;;;;;;;16.17;9.63;;;3.30;99.90;;;;;;5072061;28;20074;-58
2021/01/04 06:49:00;;;;;;;18.10;10.77;;;3.30;99.90;;;;;;5073236;28;20033;-60
2021/01/04 06:51:54;;;;;;;16.50;9.68;;;3.30;99.90;;;;;;5071839;28;20040;-60
2021/01/04 06:54:42;;;;;;;13.95;8.85;;;3.30;99.90;;;;;;5057047;28;20040;-59
2021/01/04 06:57:17;;;;;;;15.52;10.32;;;3.40;99.90;;;;;;5073267;28;20111;-70
2021/01/04 07:00:08;;;;;;;16.35;10.52;;;3.30;99.90;;;;;;5071889;28;20021;-62
2021/01/04 07:03:15;;;;;;;18.33;10.63;;;3.30;99.90;;;;;;5072488;28;20034;-62
2021/01/04 07:06:09;;;;;;;19.73;11.10;;;3.40;99.90;;;;;;5057100;28;20037;-66
2021/01/04 07:09:13;;;;;;;18.60;11.63;;;3.30;99.90;;;;;;5072570;28;20025;-60
2021/01/04 07:11:58;;;;;;;15.65;10.20;;;3.30;99.90;;;;;;5071816;28;20028;-62
2021/01/04 07:14:30;;;;;;;16.25;10.40;;;3.30;99.90;;;;;;5072464;28;20028;-58
2021/01/04 07:17:31;;;;;;;16.83;10.38;;;3.30;99.90;;;;;;5073261;28;20020;-63
2021/01/04 07:20:17;;;;;;;17.50;10.57;;;3.30;99.90;;;;;;5072161;28;20059;-59
2021/01/04 07:23:20;;;;;;;18.83;10.80;;;3.40;99.90;;;;;;5071795;28;20458;-60
2021/01/04 07:26:08;;;;;;;15.25;10.13;;;3.40;99.90;;;;;;5073434;28;20024;-61
2021/01/04 07:28:55;;;;;;;15.05;9.43;;;3.50;99.90;;;;;;5070844;28;20039;-64
2021/01/04 07:31:38;;;;;;;14.23;10.13;;;3.50;99.90;;;;;;5071929;28;20136;-60
2021/01/04 07:34:21;;;;;;;14.18;9.50;;;3.50;99.90;;;;;;5072719;28;20056;-60
2021/01/04 07:36:53;;;;;;;14.98;10.07;;;3.50;99.90;;;;;;5071531;28;20462;-60
2021/01/04 07:39:35;;;;;;;17.83;10.30;;;3.50;99.90;;;;;;5071988;28;20103;-58
2021/01/04 07:42:18;;;;;;;17.20;9.93;;;3.40;99.90;;;;;;5071307;28;20048;-59
2021/01/04 07:45:07;;;;;;;16.00;10.20;;;3.40;99.90;;;;;;5071472;28;20024;-61
2021/01/04 07:47:44;;;;;;;14.55;9.75;;;3.40;99.90;;;;;;5064303;28;20486;-59
2021/01/04 07:50:24;;;;;;;18.65;9.80;;;3.40;99.90;;;;;;5072865;28;20032;-58
2021/01/04 07:53:25;;;;;;;16.27;10.45;;;3.40;99.90;;;;;;5072930;28;20131;-59
2021/01/04 07:56:07;;;;;;;17.65;9.85;;;3.50;99.90;;;;;;5072556;28;20523;-59
2021/01/04 07:58:57;;;;;;;14.57;8.82;;;3.50;99.90;;;;;;5070910;28;20378;-60
2021/01/04 08:01:40;;;;;;;14.20;9.40;;;3.50;99.90;;;;;;5072562;28;20107;-60
2021/01/04 08:04:25;;;;;;;17.05;10.75;;;3.50;99.90;;;;;;5077279;28;20025;-65
2021/01/04 08:07:04;;;;;;;13.10;8.82;;;3.50;99.90;;;;;;5077096;28;20480;-59
2021/01/04 08:10:03;;;;;;;17.67;10.73;;;3.50;99.90;;;;;;5074790;28;20028;-66
2021/01/04 08:13:01;;;;;;;17.08;10.07;;;3.50;99.90;;;;;;5074977;28;20040;-59
2021/01/04 08:15:39;;;;;;;15.13;9.73;;;3.50;99.90;;;;;;5021937;28;20124;-65
2021/01/04 08:18:08;;;;;;;16.15;9.23;;;3.40;99.90;;;;;;5076788;28;20020;-63
2021/01/04 08:20:36;;;;;;;15.70;9.63;;;3.50;99.90;;;;;;5075542;28;20040;-60
2021/01/04 08:23:25;;;;;;;17.95;10.65;;;3.50;99.90;;;;;;5075288;28;20037;-63
2021/01/04 08:26:25;;;;;;;17.88;10.07;;;3.60;99.90;;;;;;5076229;28;20029;-61
2021/01/04 08:29:12;;;;;;;16.20;9.85;;;3.60;99.90;;;;;;5074982;28;20031;-59
2021/01/04 08:31:38;;;;;;;15.48;9.52;;;3.60;99.90;;;;;;5073951;28;20036;-61
2021/01/04 08:34:06;;;;;;;23.02;10.63;;;3.60;99.90;;;;;;5075998;28;20031;-60
2021/01/04 08:36:59;;;;;;;15.88;10.35;;;3.50;99.90;;;;;;5074967;28;20028;-64
2021/01/04 08:39:24;;;;;;;15.43;10.48;;;3.50;99.90;;;;;;5075622;28;20032;-60
2021/01/04 08:42:02;;;;;;;14.43;9.27;;;3.60;99.90;;;;;;5075876;28;20033;-59
2021/01/04 08:44:29;;;;;;;15.43;9.15;;;3.60;99.90;;;;;;5075355;28;20028;-60
2021/01/04 08:47:17;;;;;;;17.10;8.88;;;3.60;99.90;;;;;;5074466;28;20052;-60
2021/01/04 08:49:46;;;;;;;14.65;9.25;;;3.60;99.90;;;;;;5075687;28;20078;-59
2021/01/04 08:52:22;;;;;;;15.07;10.38;;;3.60;99.90;;;;;;5075505;28;20082;-59
2021/01/04 08:55:01;;;;;;;14.75;9.45;;;3.60;99.90;;;;;;5074057;28;20044;-60
2021/01/04 08:57:45;;;;;;;16.10;9.80;;;3.60;99.90;;;;;;5075017;28;20371;-60
2021/01/04 09:00:21;;;;;;;18.40;10.05;;;3.60;99.90;;;;;;5074726;28;20060;-60
2021/01/04 09:02:47;;;;;;;14.45;8.85;;;3.50;99.90;;;;;;5076181;28;20032;-68
2021/01/04 09:05:26;;;;;;;19.15;9.85;;;3.60;99.90;;;;;;5075248;28;20028;-60
2021/01/04 09:07:56;;;;;;;17.75;9.50;;;3.40;99.90;;;;;;5075134;28;20024;-59
2021/01/04 09:10:37;;;;;;;15.57;10.73;;;3.50;99.90;;;;;;5073299;28;20450;-58
2021/01/04 09:13:34;;;;;;;14.13;9.27;;;3.50;99.90;;;;;;5074965;28;20029;-59
2021/01/04 09:16:31;;;;;;;17.10;10.93;;;3.50;99.90;;;;;;5033131;28;20598;-60
2021/01/04 09:19:31;;;;;;;14.65;9.35;;;3.40;99.90;;;;;;5033107;28;20485;-58
2021/01/04 09:22:20;;;;;;;16.42;9.32;;;3.50;99.90;;;;;;5016057;28;20511;-60
2021/01/04 09:24:47;;;;;;;13.52;9.40;;;3.60;99.90;;;;;;5032345;28;20026;-59
2021/01/04 09:27:19;;;;;;;16.98;9.07;;;3.60;99.90;;;;;;5015860;28;20038;-59
2021/01/04 09:29:51;;;;;;;15.25;9.75;;;3.70;99.90;;;;;;5032635;28;20036;-59
2021/01/04 09:32:26;;;;;;;14.77;10.00;;;3.70;99.90;;;;;;5015878;28;20029;-69
2021/01/04 09:34:52;;;;;;;16.83;8.65;;;3.80;99.90;;;;;;5032742;28;20080;-59
2021/01/04 09:37:24;;;;;;;17.73;10.75;;;3.80;99.90;;;;;;5015173;28;20030;-66
2021/01/04 09:39:53;;;;;;;18.40;9.55;;;3.80;99.90;;;;;;5015513;28;20037;-60
2021/01/04 09:42:26;;;;;;;16.35;10.18;;;3.70;99.90;;;;;;5015197;28;20037;-60
2021/01/04 09:44:52;;;;;;;13.48;8.07;;;3.70;99.90;;;;;;5015775;28;20060;-59
2021/01/04 09:47:43;;;;;;;14.38;8.45;;;3.80;99.90;;;;;;5015306;28;20046;-68
2021/01/04 09:50:23;;;;;;;14.73;9.13;;;3.80;99.90;;;;;;5032657;28;20041;-60
2021/01/04 09:53:25;;;;;;;17.17;9.45;;;3.80;99.90;;;;;;5038030;28;20044;-59
2021/01/04 09:55:58;;;;;;;12.10;8.52;;;3.80;99.90;;;;;;5067213;28;20120;-58
2021/01/04 09:58:24;;;;;;;13.00;8.18;;;3.90;99.90;;;;;;5072506;28;20032;-61
2021/01/04 10:00:49;;;;;;;15.55;8.95;;;3.90;99.90;;;;;;5073004;28;20028;-60
2021/01/04 10:03:18;;;;;;;13.85;8.52;;;3.90;99.90;;;;;;5074412;28;20095;-60
2021/01/04 10:05:48;;;;;;;14.48;8.63;;;3.90;99.90;;;;;;5074373;28;20143;-59
2021/01/04 10:08:24;;;;;;;14.38;8.93;;;3.90;99.90;;;;;;5073398;28;20090;-65
2021/01/04 10:11:22;;;;;;;12.88;8.43;;;3.90;99.90;;;;;;5074836;28;20037;-60
2021/01/04 10:13:50;;;;;;;14.70;8.50;;;4.00;99.90;;;;;;5076244;28;20143;-62
2021/01/04 10:16:22;;;;;;;12.60;8.73;;;4.00;99.90;;;;;;5075355;28;20036;-59
2021/01/04 10:19:20;;;;;;;12.40;8.20;;;3.80;99.90;;;;;;5073837;28;20098;-62
2021/01/04 10:22:10;;;;;;;12.02;7.68;;;3.90;99.90;;;;;;5075728;28;20040;-60
2021/01/04 10:25:12;;;;;;;13.48;8.43;;;4.10;99.90;;;;;;5072808;28;20024;-59
2021/01/04 10:27:37;;;;;;;13.40;8.67;;;4.10;99.90;;;;;;5072114;28;20077;-61
2021/01/04 10:30:06;;;;;;;12.65;7.95;;;4.00;99.90;;;;;;5073726;28;20474;-59
2021/01/04 10:32:40;;;;;;;14.95;8.30;;;4.00;99.90;;;;;;5071571;28;20029;-57
2021/01/04 10:35:21;;;;;;;12.70;8.50;;;4.10;99.90;;;;;;5073289;28;20029;-59
2021/01/04 10:38:12;;;;;;;12.27;8.30;;;4.10;99.90;;;;;;5072605;28;20245;-58
2021/01/04 10:40:44;;;;;;;15.38;8.73;;;4.10;99.90;;;;;;5071612;28;20535;-59
2021/01/04 10:43:10;;;;;;;11.63;7.78;;;4.20;99.90;;;;;;5073291;28;20024;-64
2021/01/04 10:45:38;;;;;;;14.50;8.55;;;4.10;99.90;;;;;;5071359;28;20398;-59
2021/01/04 10:48:12;;;;;;;11.25;7.82;;;4.10;99.90;;;;;;5073370;28;20032;-61
2021/01/04 10:50:43;;;;;;;10.82;7.32;;;4.10;99.90;;;;;;5071369;28;20028;-58
2021/01/04 10:53:12;;;;;;;9.43;7.03;;;4.10;99.90;;;;;;5071952;28;20155;-61
2021/01/04 10:56:24;;;;;;;13.30;9.00;;;4.10;99.90;;;;;;5072915;28;20025;-63
2021/01/04 10:59:16;;;;;;;15.35;7.93;;;4.20;99.90;;;;;;5072030;28;20025;-59
2021/01/04 11:01:45;;;;;;;11.75;7.72;;;4.30;99.90;;;;;;5071098;28;20659;-59
2021/01/04 11:04:19;;;;;;;10.52;7.55;;;4.30;99.90;;;;;;5072727;28;20092;-71
2021/01/04 11:06:59;;;;;;;12.93;7.25;;;4.30;99.90;;;;;;5072468;28;20505;-60
2021/01/04 11:09:31;;;;;;;11.55;7.88;;;4.30;99.90;;;;;;5071124;28;20469;-62
2021/01/04 11:12:26;;;;;;;13.00;8.15;;;4.40;99.90;;;;;;5072908;28;20390;-60
2021/01/04 11:15:00;;;;;;;12.63;8.18;;;4.40;99.90;;;;;;5069509;28;20036;-60
2021/01/04 11:17:31;;;;;;;16.20;11.15;;;4.60;99.90;;;;;;5071035;28;20470;-60
2021/01/04 11:20:09;;;;;;;14.43;9.65;;;4.70;99.90;;;;;;5073106;28;20362;-59
2021/01/04 11:22:35;;;;;;;12.60;8.65;;;4.70;99.90;;;;;;5070970;28;20031;-62
2021/01/04 11:25:00;;;;;;;11.35;7.82;;;4.70;99.90;;;;;;5071398;28;20453;-65
2021/01/04 11:27:27;;;;;;;10.57;7.20;;;4.70;99.90;;;;;;5071809;28;20025;-61
2021/01/04 11:29:53;;;;;;;12.15;7.15;;;4.70;99.90;;;;;;5071202;28;20359;-61
2021/01/04 11:32:20;;;;;;;14.15;7.85;;;4.60;99.90;;;;;;5071690;28;20031;-60
2021/01/04 11:34:48;;;;;;;12.07;7.35;;;4.50;99.90;;;;;;5070947;28;20046;-58
2021/01/04 11:37:15;;;;;;;12.30;8.25;;;4.60;99.90;;;;;;5071203;28;20051;-60
2021/01/04 11:39:41;;;;;;;7.43;6.05;;;4.60;99.90;;;;;;5070684;28;20488;-60
2021/01/04 11:42:08;;;;;;;13.18;8.40;;;4.60;99.90;;;;;;5072523;28;20025;-60
2021/01/04 11:44:34;;;;;;;12.77;9.20;;;4.60;99.90;;;;;;5070613;28;20127;-61
2021/01/04 11:47:00;;;;;;;16.83;9.13;;;4.60;99.90;;;;;;5072886;28;20095;-63
2021/01/04 11:49:27;;;;;;;12.25;6.95;;;4.70;99.90;;;;;;5072148;28;20043;-65
2021/01/04 11:51:54;;;;;;;13.65;8.00;;;4.70;99.90;;;;;;5072192;28;20059;-64
2021/01/04 11:54:21;;;;;;;11.18;7.43;;;4.70;99.90;;;;;;5071455;28;20098;-59
2021/01/04 11:56:48;;;;;;;12.95;6.35;;;4.70;99.90;;;;;;5071629;28;20485;-63
2021/01/04 11:59:14;;;;;;;10.18;6.82;;;4.60;99.90;;;;;;5071481;28;20025;-61
2021/01/04 12:01:40;;;;;;;11.02;7.03;;;4.60;99.90;;;;;;5070784;28;20029;-61
2021/01/04 12:04:06;;;;;;;11.77;6.57;;;4.60;99.90;;;;;;5072763;28;20355;-61
2021/01/04 12:06:32;;;;;;;12.25;7.28;;;4.60;99.90;;;;;;5072029;28;20028;-62
2021/01/04 12:08:58;;;;;;;10.68;7.63;;;4.50;99.90;;;;;;5074091;28;20036;-60
2021/01/04 12:11:29;;;;;;;10.88;7.10;;;4.60;99.90;;;;;;5073383;28;20068;-61
2021/01/04 12:13:55;;;;;;;9.98;6.82;;;4.40;99.90;;;;;;5073160;28;20032;-60
2021/01/04 12:16:20;;;;;;;12.23;7.80;;;4.30;99.90;;;;;;5071954;28;20036;-62
2021/01/04 12:18:46;;;;;;;8.75;6.65;;;4.40;99.90;;;;;;5072243;28;20677;-62
2021/01/04 12:21:13;;;;;;;10.77;7.22;;;4.30;99.90;;;;;;5073704;28;20063;-61
2021/01/04 12:23:40;;;;;;;10.82;7.28;;;4.30;99.90;;;;;;5073513;28;20021;-61
2021/01/04 12:26:10;;;;;;;10.77;6.97;;;4.40;99.90;;;;;;5072297;28;20472;-60
2021/01/04 12:28:35;;;;;;;10.52;7.57;;;4.50;99.90;;;;;;5072408;28;20028;-60
2021/01/04 12:31:01;;;;;;;9.13;6.32;;;4.40;99.90;;;;;;5071148;28;20520;-61
2021/01/04 12:33:26;;;;;;;10.15;6.47;;;4.40;99.90;;;;;;5071914;28;20020;-60
2021/01/04 12:35:53;;;;;;;12.15;7.07;;;4.50;99.90;;;;;;5071792;28;20424;-61
2021/01/04 12:38:19;;;;;;;10.70;7.03;;;4.50;99.90;;;;;;5071785;28;20454;-61
2021/01/04 12:40:44;;;;;;;9.40;6.90;;;4.40;99.90;;;;;;5071223;28;20024;-60
2021/01/04 12:43:10;;;;;;;12.20;7.25;;;4.40;99.90;;;;;;5071703;28;20374;-61
2021/01/04 12:45:36;;;;;;;10.35;6.90;;;4.30;99.90;;;;;;5070909;28;20020;-60
2021/01/04 12:48:01;;;;;;;12.15;7.05;;;4.30;99.90;;;;;;5071148;28;20047;-61
2021/01/04 12:50:27;;;;;;;12.13;6.55;;;4.40;99.90;;;;;;5075771;28;20032;-61
2021/01/04 12:52:53;;;;;;;12.43;7.55;;;4.50;99.90;;;;;;5074075;28;20051;-64
2021/01/04 12:55:19;;;;;;;12.38;7.38;;;4.40;99.90;;;;;;5074761;28;20029;-65
2021/01/04 12:57:47;;;;;;;14.40;7.10;;;4.40;99.90;;;;;;5075454;28;20397;-60
2021/01/04 13:00:15;;;;;;;14.52;7.97;;;4.40;99.90;;;;;;5074568;28;20025;-61
2021/01/04 13:02:41;;;;;;;11.60;7.63;;;4.50;99.90;;;;;;5074070;28;20115;-61
2021/01/04 13:05:07;;;;;;;12.18;7.60;;;4.50;99.90;;;;;;5075150;28;20089;-60
2021/01/04 13:07:32;;;;;;;11.10;6.82;;;4.50;99.90;;;;;;5073625;28;20063;-61
2021/01/04 13:09:58;;;;;;;11.18;7.95;;;4.50;99.90;;;;;;5074047;28;20025;-58
2021/01/04 13:12:23;;;;;;;13.25;7.15;;;4.40;99.90;;;;;;5075008;28;20028;-60
2021/01/04 13:14:49;;;;;;;15.02;7.95;;;4.40;99.90;;;;;;5073514;28;20033;-64
2021/01/04 13:17:15;;;;;;;10.48;7.00;;;4.50;99.90;;;;;;5057323;28;20494;-59
2021/01/04 13:19:41;;;;;;;11.07;7.43;;;4.50;99.90;;;;;;5073215;28;20476;-66
2021/01/04 13:22:07;;;;;;;10.43;6.68;;;4.50;99.90;;;;;;5073755;28;20024;-62
2021/01/04 13:24:33;;;;;;;10.98;7.95;;;4.40;99.90;;;;;;5074462;28;20085;-61
2021/01/04 13:26:59;;;;;;;9.82;7.07;;;4.50;99.90;;;;;;5073432;28;20032;-60
2021/01/04 13:29:28;;;;;;;14.27;7.45;;;4.50;99.90;;;;;;5073340;28;20604;-60
2021/01/04 13:32:06;;;;;;;10.15;7.13;;;4.50;99.90;;;;;;5072745;28;20033;-59
2021/01/04 13:34:32;;;;;;;10.65;7.20;;;4.50;99.90;;;;;;5073434;28;20203;-70
2021/01/04 13:36:58;;;;;;;12.98;7.10;;;4.60;99.90;;;;;;5073475;28;20029;-59